Time;durP1;ratioP1;P1;durP2;ratioP2;P2;SDS_P1;SDS_P2;PMS_P1;PMS_P2;Temp;Humidity;BMP_temperature;BMP_pressure;BME280_temperature;BME280_humidity;BME280_pressure;Samples;Min_cycle;Max_cycle;Signal;HPM_P1;HPM_P2
2022/11/23 00:02:15;;;;;;;8.63;3.75;;;;;;;11.94;100.00;99416.91;5052530;28;20029;-72
2022/11/23 00:04:40;;;;;;;8.65;3.20;;;;;;;11.97;100.00;99396.28;5053563;28;20025;-71
2022/11/23 00:07:06;;;;;;;8.15;2.90;;;;;;;11.98;100.00;99403.19;5053160;28;20112;-71
2022/11/23 00:09:31;;;;;;;5.95;2.28;;;;;;;12.07;100.00;99402.44;5053091;28;20036;-71
2022/11/23 00:11:57;;;;;;;9.20;2.17;;;;;;;12.12;100.00;99403.41;5052956;28;20040;-71
2022/11/23 00:14:22;;;;;;;4.70;2.10;;;;;;;12.25;100.00;99407.00;5060835;28;20031;-70
2022/11/23 00:16:47;;;;;;;7.22;2.55;;;;;;;12.33;100.00;99398.47;5052510;28;20040;-70
2022/11/23 00:19:13;;;;;;;7.75;2.25;;;;;;;12.39;100.00;99404.59;5065354;28;20465;-71
2022/11/23 00:21:38;;;;;;;7.22;2.20;;;;;;;12.18;100.00;99368.94;5072477;28;20028;-70
2022/11/23 00:24:04;;;;;;;7.30;2.13;;;;;;;12.49;100.00;99409.88;5072363;28;20031;-70
2022/11/23 00:26:29;;;;;;;5.35;1.95;;;;;;;12.46;100.00;99400.34;5072474;28;20387;-70
2022/11/23 00:28:55;;;;;;;7.20;2.15;;;;;;;12.44;100.00;99391.72;5072960;28;20021;-71
2022/11/23 00:31:21;;;;;;;5.57;2.15;;;;;;;12.47;100.00;99391.72;5072583;28;20089;-70
2022/11/23 00:33:54;;;;;;;4.38;1.80;;;;;;;12.42;100.00;99389.09;5072408;28;20024;-71
2022/11/23 00:36:21;;;;;;;5.97;2.00;;;;;;;12.40;100.00;99369.19;5057882;28;20032;-72
2022/11/23 00:38:47;;;;;;;6.10;1.88;;;;;;;12.46;100.00;99366.69;5072653;28;20028;-71
2022/11/23 00:41:16;;;;;;;3.70;1.63;;;;;;;12.47;100.00;99345.13;5072624;28;20028;-71
2022/11/23 00:43:43;;;;;;;4.82;1.63;;;;;;;12.45;100.00;99347.72;5071487;28;20566;-71
2022/11/23 00:46:20;;;;;;;3.13;1.35;;;;;;;12.50;100.00;99346.88;5054311;28;20112;-71
2022/11/23 00:48:47;;;;;;;4.13;1.70;;;;;;;12.31;100.00;99313.03;5071751;28;20406;-71
2022/11/23 00:51:15;;;;;;;4.85;1.80;;;;;;;12.54;100.00;99353.84;5072317;28;20064;-71
2022/11/23 00:53:41;;;;;;;4.30;2.15;;;;;;;12.52;100.00;99337.44;5071947;28;20460;-71
2022/11/23 00:56:07;;;;;;;5.60;1.67;;;;;;;12.55;100.00;99343.50;5044380;28;20028;-72
2022/11/23 00:58:33;;;;;;;6.88;1.88;;;;;;;12.56;100.00;99341.78;5072082;28;20104;-71
2022/11/23 01:01:20;;;;;;;3.83;1.92;;;;;;;12.62;100.00;99337.56;5071993;28;20035;-71
2022/11/23 01:03:51;;;;;;;4.05;1.75;;;;;;;12.66;100.00;99334.97;5072009;28;20094;-72
2022/11/23 01:06:23;;;;;;;4.03;1.80;;;;;;;12.65;100.00;99322.88;5072103;28;20395;-71
2022/11/23 01:08:50;;;;;;;6.15;1.70;;;;;;;12.65;100.00;99322.88;5071759;28;20501;-71
2022/11/23 01:11:16;;;;;;;4.80;1.70;;;;;;;12.38;100.00;99268.25;5071910;28;20036;-71
2022/11/23 01:13:42;;;;;;;7.78;1.88;;;;;;;12.59;100.00;99308.16;5071548;28;20107;-71
2022/11/23 01:16:16;;;;;;;4.60;1.92;;;;;;;12.60;100.00;99312.50;5071626;28;20667;-72
2022/11/23 01:18:41;;;;;;;6.28;2.13;;;;;;;12.62;100.00;99303.00;5071827;28;20025;-71
2022/11/23 01:21:07;;;;;;;6.28;1.85;;;;;;;12.61;100.00;99303.84;5071340;28;20059;-71
2022/11/23 01:23:32;;;;;;;4.05;2.08;;;;;;;12.60;100.00;99302.13;5071601;28;20122;-71
2022/11/23 01:26:04;;;;;;;5.68;2.00;;;;;;;12.59;100.00;99303.00;5071478;28;20032;-72
2022/11/23 01:28:29;;;;;;;3.17;1.73;;;;;;;12.56;100.00;99296.06;5070679;28;20044;-72
2022/11/23 01:30:55;;;;;;;4.13;1.73;;;;;;;12.41;100.00;99270.00;5071309;28;20046;-71
2022/11/23 01:33:20;;;;;;;4.95;1.90;;;;;;;12.53;100.00;99311.53;5053296;28;20044;-72
2022/11/23 01:35:46;;;;;;;4.35;1.70;;;;;;;12.52;100.00;99302.03;5071361;28;20028;-72
2022/11/23 01:38:11;;;;;;;2.95;1.67;;;;;;;12.54;100.00;99300.34;5071257;28;20029;-71
2022/11/23 01:40:41;;;;;;;4.95;1.95;;;;;;;12.56;100.00;99287.41;5071024;28;20070;-71
2022/11/23 01:43:15;;;;;;;6.28;1.98;;;;;;;12.52;100.00;99280.47;5070681;28;20414;-72
2022/11/23 01:45:44;;;;;;;4.15;1.63;;;;;;;12.53;100.00;99277.03;5070959;28;20055;-72
2022/11/23 01:48:21;;;;;;;5.95;2.05;;;;;;;12.52;100.00;99264.94;5071037;28;20036;-72
2022/11/23 01:50:50;;;;;;;5.68;2.08;;;;;;;12.43;100.00;99266.56;5053292;28;20067;-71
2022/11/23 01:53:16;;;;;;;4.78;2.17;;;;;;;12.47;100.00;99262.28;5053390;28;20039;-72
2022/11/23 01:55:44;;;;;;;6.13;2.10;;;;;;;12.46;100.00;99256.25;5070461;28;20036;-71
2022/11/23 01:58:13;;;;;;;4.78;2.05;;;;;;;12.44;100.00;99268.31;5070857;28;20533;-72
2022/11/23 02:00:38;;;;;;;5.68;2.30;;;;;;;12.44;100.00;99283.84;5070668;28;20032;-72
2022/11/23 02:03:05;;;;;;;4.28;1.83;;;;;;;12.48;100.00;99299.41;5070619;28;20470;-71
2022/11/23 02:05:41;;;;;;;4.75;2.45;;;;;;;12.44;100.00;99299.38;5070821;28;20035;-72
2022/11/23 02:08:08;;;;;;;5.63;2.45;;;;;;;12.37;100.00;99276.88;5070870;28;20024;-71
2022/11/23 02:10:35;;;;;;;10.23;2.47;;;;;;;12.34;100.00;99291.53;5070428;28;20485;-72
2022/11/23 02:13:07;;;;;;;6.38;2.20;;;;;;;12.30;100.00;99295.78;5070278;28;20052;-71
2022/11/23 02:15:34;;;;;;;4.85;1.85;;;;;;;12.31;100.00;99297.50;5070754;28;20027;-71
2022/11/23 02:18:02;;;;;;;5.28;2.55;;;;;;;12.32;100.00;99293.22;5070214;28;20115;-71
2022/11/23 02:20:28;;;;;;;5.82;2.55;;;;;;;12.34;100.00;99276.00;5070057;28;20036;-71
2022/11/23 02:23:09;;;;;;;5.10;2.00;;;;;;;12.38;100.00;99286.38;5070492;28;20033;-71
2022/11/23 02:25:46;;;;;;;6.13;2.50;;;;;;;12.41;100.00;99281.25;5070524;28;20024;-69
2022/11/23 02:28:23;;;;;;;6.55;2.33;;;;;;;12.39;100.00;99276.91;5070119;28;20083;-69
2022/11/23 02:30:50;;;;;;;8.38;2.15;;;;;;;12.45;100.00;99271.78;5070722;28;20036;-70
2022/11/23 02:33:16;;;;;;;6.22;2.30;;;;;;;12.45;100.00;99269.19;5070190;28;20052;-71
2022/11/23 02:35:53;;;;;;;5.22;1.95;;;;;;;12.48;100.00;99264.03;5070232;28;20187;-71
2022/11/23 02:38:20;;;;;;;6.45;2.15;;;;;;;12.52;100.00;99252.00;5070120;28;20035;-71
2022/11/23 02:40:46;;;;;;;4.82;2.35;;;;;;;12.49;100.00;99249.41;5070229;28;20132;-71
2022/11/23 02:43:12;;;;;;;5.53;2.28;;;;;;;12.52;100.00;99254.59;5069919;28;20032;-70
2022/11/23 02:46:01;;;;;;;4.88;2.35;;;;;;;12.51;100.00;99263.19;5069973;28;20024;-71
2022/11/23 02:48:26;;;;;;;4.22;1.95;;;;;;;12.41;100.00;99237.25;5069876;28;20028;-71
2022/11/23 02:50:52;;;;;;;4.70;2.15;;;;;;;12.42;100.00;99227.75;5069881;28;20135;-71
2022/11/23 02:53:18;;;;;;;4.75;2.28;;;;;;;12.45;100.00;99248.50;5070185;28;20024;-71
2022/11/23 02:55:43;;;;;;;8.98;2.97;;;;;;;12.38;100.00;99241.50;5069988;28;20087;-72
2022/11/23 02:58:09;;;;;;;5.45;2.25;;;;;;;12.31;100.00;99256.09;5069944;28;20496;-71
2022/11/23 03:00:35;;;;;;;6.90;2.55;;;;;;;12.27;100.00;99259.50;5070118;28;20448;-72
2022/11/23 03:03:02;;;;;;;6.93;2.55;;;;;;;12.24;100.00;99256.91;5069903;28;20397;-70
2022/11/23 03:05:27;;;;;;;6.63;2.50;;;;;;;12.19;100.00;99250.81;5069957;28;20035;-70
2022/11/23 03:07:53;;;;;;;5.55;2.08;;;;;;;12.10;100.00;99234.34;5069092;28;20024;-71
2022/11/23 03:10:18;;;;;;;10.40;2.40;;;;;;;11.85;100.00;99196.97;5070159;28;20100;-71
2022/11/23 03:12:44;;;;;;;6.40;2.13;;;;;;;11.94;100.00;99220.31;5069698;28;20025;-71
2022/11/23 03:15:09;;;;;;;6.65;2.30;;;;;;;11.93;100.00;99230.66;5069811;28;20113;-71
2022/11/23 03:17:35;;;;;;;7.07;2.70;;;;;;;11.86;100.00;99224.53;5069948;28;20063;-71
2022/11/23 03:20:02;;;;;;;7.65;2.35;;;;;;;11.90;100.00;99231.50;5070053;28;20070;-71
2022/11/23 03:22:27;;;;;;;7.00;3.25;;;;;;;11.84;100.00;99228.84;5069616;28;20116;-70
2022/11/23 03:24:53;;;;;;;12.05;2.90;;;;;;;11.87;100.00;99243.53;5069843;28;20103;-71
2022/11/23 03:27:18;;;;;;;7.03;2.30;;;;;;;11.78;100.00;99242.56;5069601;28;20057;-70
2022/11/23 03:29:44;;;;;;;5.88;2.35;;;;;;;11.78;100.00;99234.78;5069759;28;20032;-70
2022/11/23 03:32:09;;;;;;;9.93;3.13;;;;;;;11.79;100.00;99218.44;5069848;28;20458;-71
2022/11/23 03:34:34;;;;;;;8.80;2.88;;;;;;;11.82;100.00;99210.72;5069582;28;20460;-71
2022/11/23 03:37:00;;;;;;;10.25;3.40;;;;;;;11.81;100.00;99216.75;5069851;28;20021;-71
2022/11/23 03:39:26;;;;;;;10.13;3.15;;;;;;;11.76;100.00;99223.59;5069572;28;20029;-70
2022/11/23 03:41:51;;;;;;;10.10;3.47;;;;;;;11.74;100.00;99220.09;5069253;28;20059;-70
2022/11/23 03:44:16;;;;;;;13.15;3.40;;;;;;;11.81;100.00;99214.16;5069443;28;20017;-70
2022/11/23 03:46:42;;;;;;;11.88;3.92;;;;;;;11.78;100.00;99216.69;5069376;28;20035;-70
2022/11/23 03:49:07;;;;;;;10.18;3.30;;;;;;;11.87;100.00;99221.09;5069437;28;20024;-69
2022/11/23 03:51:33;;;;;;;11.18;3.00;;;;;;;11.70;100.00;99184.72;5069605;28;20035;-70
2022/11/23 03:53:58;;;;;;;7.20;2.90;;;;;;;11.96;100.00;99222.97;5069438;28;20533;-69
2022/11/23 03:56:24;;;;;;;7.65;3.05;;;;;;;11.97;100.00;99223.00;5069380;28;20511;-70
2022/11/23 03:58:49;;;;;;;5.57;2.70;;;;;;;11.98;100.00;99218.69;5069216;28;20079;-70
2022/11/23 04:01:15;;;;;;;9.32;3.05;;;;;;;11.89;100.00;99210.81;5069278;28;20035;-70
2022/11/23 04:03:40;;;;;;;9.23;2.80;;;;;;;11.85;100.00;99215.06;5069287;28;20036;-69
2022/11/23 04:06:06;;;;;;;9.50;3.72;;;;;;;11.71;100.00;99196.78;5069341;28;20458;-69
2022/11/23 04:08:31;;;;;;;10.38;3.38;;;;;;;11.41;100.00;99154.19;5069279;28;20071;-69
2022/11/23 04:10:58;;;;;;;11.75;3.55;;;;;;;11.62;100.00;99192.38;5068769;28;20421;-70
2022/11/23 04:13:24;;;;;;;10.10;3.30;;;;;;;11.57;100.00;99188.00;5069158;28;20486;-70
2022/11/23 04:15:49;;;;;;;9.73;3.55;;;;;;;11.60;100.00;99190.63;5069282;28;20023;-70
2022/11/23 04:18:15;;;;;;;10.23;3.55;;;;;;;11.62;100.00;99182.03;5069340;28;20048;-70
2022/11/23 04:20:40;;;;;;;9.45;3.95;;;;;;;11.61;100.00;99185.50;5071667;28;20099;-70
2022/11/23 04:23:05;;;;;;;13.73;3.42;;;;;;;11.45;100.00;99147.34;5072680;28;20441;-70
2022/11/23 04:25:31;;;;;;;11.77;3.53;;;;;;;11.64;100.00;99190.69;5072440;28;20432;-70
2022/11/23 04:27:56;;;;;;;8.38;3.03;;;;;;;11.44;100.00;99150.78;5072749;28;20096;-70
2022/11/23 04:30:22;;;;;;;11.23;3.72;;;;;;;11.42;100.00;99139.59;5072607;28;20825;-70
2022/11/23 04:32:47;;;;;;;11.00;4.00;;;;;;;11.75;100.00;99185.66;5072385;28;20032;-70
2022/11/23 04:35:13;;;;;;;8.55;3.53;;;;;;;11.77;100.00;99183.91;5072442;28;20028;-69
2022/11/23 04:37:38;;;;;;;8.63;3.38;;;;;;;11.75;100.00;99169.25;5072504;28;20124;-69
2022/11/23 04:40:04;;;;;;;15.00;4.05;;;;;;;11.68;100.00;99151.97;5072358;28;20422;-69
2022/11/23 04:42:30;;;;;;;13.30;4.18;;;;;;;11.83;100.00;99172.78;5072512;28;20032;-69
2022/11/23 04:44:56;;;;;;;13.13;3.80;;;;;;;11.83;100.00;99157.28;5072142;28;20032;-69
2022/11/23 04:47:23;;;;;;;15.68;4.57;;;;;;;11.93;100.00;99172.03;5072602;28;20040;-69
2022/11/23 04:49:49;;;;;;;14.25;3.95;;;;;;;12.00;100.00;99173.00;5071964;28;20753;-69
2022/11/23 04:52:15;;;;;;;8.93;3.25;;;;;;;12.01;100.00;99181.63;5072106;28;20028;-70
2022/11/23 04:54:40;;;;;;;15.43;4.85;;;;;;;11.78;100.00;99180.50;5071929;28;20032;-70
2022/11/23 04:57:06;;;;;;;8.13;3.90;;;;;;;11.86;100.00;99184.88;5071936;28;20073;-71
2022/11/23 04:59:31;;;;;;;11.00;3.97;;;;;;;11.74;100.00;99150.28;5058070;28;20078;-69
2022/11/23 05:01:56;;;;;;;12.65;4.18;;;;;;;11.97;100.00;99171.25;5072127;28;20390;-69
2022/11/23 05:04:22;;;;;;;10.68;3.80;;;;;;;11.92;100.00;99170.28;5071964;28;20360;-69
2022/11/23 05:06:47;;;;;;;12.00;4.53;;;;;;;11.87;100.00;99187.47;5071549;28;20029;-69
2022/11/23 05:09:13;;;;;;;10.07;4.50;;;;;;;12.00;100.00;99190.22;5071732;28;20024;-70
2022/11/23 05:11:38;;;;;;;11.60;4.63;;;;;;;11.99;100.00;99179.03;5071140;28;20069;-69
2022/11/23 05:14:04;;;;;;;11.35;4.20;;;;;;;12.00;100.00;99167.84;5071737;28;20024;-69
2022/11/23 05:16:29;;;;;;;8.60;3.83;;;;;;;12.09;100.00;99180.00;5071467;28;20137;-71
2022/11/23 05:18:55;;;;;;;11.48;3.58;;;;;;;12.00;100.00;99160.09;5071460;28;20028;-70
2022/11/23 05:21:20;;;;;;;8.65;3.85;;;;;;;11.96;100.00;99145.38;5071240;28;20509;-70
2022/11/23 05:23:46;;;;;;;10.20;3.55;;;;;;;11.90;100.00;99128.06;5071072;28;20097;-69
2022/11/23 05:26:11;;;;;;;8.02;3.90;;;;;;;11.74;100.00;99108.91;5070995;28;20082;-71
2022/11/23 05:28:37;;;;;;;11.20;4.40;;;;;;;12.05;100.00;99142.88;5071111;28;20543;-70
2022/11/23 05:31:03;;;;;;;10.30;4.50;;;;;;;12.01;100.00;99143.69;5071000;28;20033;-70
2022/11/23 05:33:29;;;;;;;17.17;5.82;;;;;;;12.13;100.00;99148.97;5071241;28;20024;-71
2022/11/23 05:35:54;;;;;;;17.10;5.18;;;;;;;12.09;100.00;99154.13;5071233;28;20046;-70
2022/11/23 05:38:20;;;;;;;12.10;4.80;;;;;;;12.11;100.00;99155.88;5071169;28;20481;-70
2022/11/23 05:40:45;;;;;;;11.65;5.57;;;;;;;12.05;100.00;99142.00;5071199;28;20021;-70
2022/11/23 05:43:11;;;;;;;8.20;4.35;;;;;;;11.70;100.00;99094.25;5070995;28;20062;-70
2022/11/23 05:45:37;;;;;;;13.10;5.43;;;;;;;11.96;100.00;99159.19;5071113;28;20081;-70
2022/11/23 05:48:03;;;;;;;12.23;5.10;;;;;;;11.97;100.00;99147.09;5075876;28;20485;-71
2022/11/23 05:50:29;;;;;;;8.35;5.00;;;;;;;11.98;100.00;99143.66;5070038;28;20029;-71
2022/11/23 05:52:56;;;;;;;14.02;5.25;;;;;;;12.10;100.00;99146.38;5069756;28;20043;-70
2022/11/23 05:55:21;;;;;;;13.68;5.05;;;;;;;12.03;100.00;99154.06;5070507;28;20032;-70
2022/11/23 05:57:47;;;;;;;9.63;5.65;;;;;;;12.00;100.00;99141.97;5070412;28;20036;-72
2022/11/23 06:00:13;;;;;;;10.85;7.25;;;;;;;12.05;100.00;99136.81;5069852;28;20484;-71
2022/11/23 06:02:38;;;;;;;12.18;5.50;;;;;;;12.07;100.00;99137.72;5070631;28;20036;-72
2022/11/23 06:05:04;;;;;;;11.02;3.90;;;;;;;12.18;100.00;99135.25;5074179;28;20039;-71
2022/11/23 06:07:33;;;;;;;11.32;3.85;;;;;;;12.10;100.00;99092.06;5078220;28;20035;-71
2022/11/23 06:09:59;;;;;;;7.00;2.63;;;;;;;12.33;100.00;99131.91;5018593;28;20089;-70
2022/11/23 06:12:26;;;;;;;10.68;3.22;;;;;;;12.38;100.00;99127.63;5070331;28;20255;-73
2022/11/23 06:14:51;;;;;;;10.18;3.00;;;;;;;12.38;100.00;99122.47;5070513;28;20555;-73
2022/11/23 06:17:17;;;;;;;12.57;4.18;;;;;;;12.53;100.00;99129.47;5069858;28;20103;-74
2022/11/23 06:19:43;;;;;;;12.13;3.50;;;;;;;12.57;100.00;99139.88;5070396;28;20087;-74
2022/11/23 06:22:10;;;;;;;6.78;2.92;;;;;;;12.46;100.00;99100.06;5068590;28;20086;-74
2022/11/23 06:24:35;;;;;;;10.80;2.90;;;;;;;12.67;100.00;99137.34;5069148;28;20043;-74
2022/11/23 06:27:01;;;;;;;6.82;2.13;;;;;;;12.70;100.00;99130.47;5054092;28;20037;-75
2022/11/23 06:29:27;;;;;;;9.13;3.05;;;;;;;12.74;100.00;99128.75;5041883;28;20068;-76
2022/11/23 06:31:53;;;;;;;8.65;2.50;;;;;;;12.76;100.00;99130.50;5070694;28;20471;-75
2022/11/23 06:34:18;;;;;;;6.30;2.38;;;;;;;12.84;100.00;99133.13;5069775;28;20091;-75
2022/11/23 06:36:44;;;;;;;6.40;2.35;;;;;;;12.83;100.00;99138.31;5069543;28;20021;-75
2022/11/23 06:39:09;;;;;;;7.72;2.58;;;;;;;12.82;100.00;99137.44;5070164;28;20866;-75
2022/11/23 06:41:35;;;;;;;9.23;3.03;;;;;;;12.77;100.00;99140.00;5069717;28;20115;-75
2022/11/23 06:44:01;;;;;;;8.13;2.85;;;;;;;12.73;100.00;99133.06;5052010;28;20031;-74
2022/11/23 06:46:26;;;;;;;8.68;3.22;;;;;;;12.70;100.00;99158.09;5070234;28;20124;-74
2022/11/23 06:48:53;;;;;;;6.20;2.70;;;;;;;12.61;100.00;99143.31;5068530;28;20043;-74
2022/11/23 06:51:18;;;;;;;6.50;2.08;;;;;;;12.57;100.00;99151.94;5068666;28;20115;-74
2022/11/23 06:53:44;;;;;;;6.45;2.10;;;;;;;12.58;100.00;99157.13;5070177;28;20031;-74
2022/11/23 06:56:29;;;;;;;6.05;1.40;;;;;;;12.56;100.00;99152.78;5070108;28;20502;-74
2022/11/23 06:58:55;;;;;;;2.70;1.10;;;;;;;12.57;100.00;99139.88;5007739;28;20053;-74
2022/11/23 07:01:20;;;;;;;4.88;1.40;;;;;;;12.65;100.00;99150.28;5007961;28;20037;-73
2022/11/23 07:03:46;;;;;;;3.85;1.10;;;;;;;12.68;100.00;99159.78;5007579;28;20042;-73
2022/11/23 07:06:11;;;;;;;5.13;1.50;;;;;;;12.69;100.00;99157.19;5007393;28;20499;-73
2022/11/23 07:08:42;;;;;;;3.58;0.90;;;;;;;12.69;100.00;99149.44;5007820;28;20460;-73
2022/11/23 07:11:10;;;;;;;3.90;1.63;;;;;;;12.54;100.00;99124.31;5007637;28;20038;-73
2022/11/23 07:13:35;;;;;;;4.43;1.20;;;;;;;12.56;100.00;99125.19;5007964;28;20141;-73
2022/11/23 07:16:01;;;;;;;4.53;1.42;;;;;;;12.62;100.00;99137.28;5007420;28;20427;-73
2022/11/23 07:18:27;;;;;;;4.30;1.20;;;;;;;12.79;100.00;99158.13;5007431;28;20025;-74
2022/11/23 07:20:52;;;;;;;3.25;1.27;;;;;;;12.62;100.00;99130.41;5007344;28;20026;-73
2022/11/23 07:23:18;;;;;;;4.53;1.42;;;;;;;12.91;100.00;99178.06;5007660;28;20049;-74
2022/11/23 07:25:43;;;;;;;4.30;1.40;;;;;;;12.90;100.00;99178.94;5007109;28;20198;-74
2022/11/23 07:28:12;;;;;;;7.07;1.92;;;;;;;12.92;100.00;99195.34;5007132;28;20405;-74
2022/11/23 07:30:37;;;;;;;8.45;5.63;;;;;;;12.48;100.00;99201.91;5007510;28;20220;-74
2022/11/23 07:33:07;;;;;;;16.23;8.52;;;;;;;11.69;100.00;99185.56;5007169;28;20056;-74
2022/11/23 07:35:33;;;;;;;20.85;10.30;;;;;;;11.60;100.00;99199.25;5017378;28;20036;-74
2022/11/23 07:37:58;;;;;;;17.05;10.52;;;;;;;11.54;100.00;99191.44;5069420;28;20452;-74
2022/11/23 07:40:24;;;;;;;18.42;12.38;;;;;;;11.58;100.00;99193.19;5069392;28;20051;-74
2022/11/23 07:42:49;;;;;;;16.17;11.45;;;;;;;11.45;100.00;99194.75;5069038;28;20087;-75
2022/11/23 07:45:15;;;;;;;15.88;11.48;;;;;;;11.42;100.00;99199.03;5069320;28;20047;-75
2022/11/23 07:47:40;;;;;;;19.50;11.68;;;;;;;11.46;100.00;99211.13;5068941;28;20024;-74
2022/11/23 07:50:08;;;;;;;19.13;11.18;;;;;;;11.23;100.00;99216.00;5069603;28;20450;-74
2022/11/23 07:52:35;;;;;;;19.98;12.57;;;;;;;11.12;100.00;99206.38;5069454;28;20036;-73
2022/11/23 07:55:01;;;;;;;18.17;12.45;;;;;;;11.02;100.00;99198.47;5054951;28;20086;-73
2022/11/23 07:57:26;;;;;;;17.92;12.02;;;;;;;10.80;100.00;99185.22;5072903;28;20036;-73
2022/11/23 07:59:52;;;;;;;17.10;12.50;;;;;;;10.67;100.00;99208.28;5072008;28;20052;-74
2022/11/23 08:02:17;;;;;;;20.75;13.27;;;;;;;10.61;100.00;99192.69;5071314;28;20029;-74
2022/11/23 08:04:43;;;;;;;20.02;14.30;;;;;;;10.63;100.00;99221.09;5072814;28;20032;-76
2022/11/23 08:07:08;;;;;;;20.48;14.73;;;;;;;10.60;100.00;99216.75;5054943;28;20029;-73
2022/11/23 08:09:33;;;;;;;21.75;15.02;;;;;;;10.58;100.00;99213.28;5054987;28;20030;-74
2022/11/23 08:11:59;;;;;;;21.40;15.85;;;;;;;10.79;100.00;99214.47;5072847;28;20028;-74
2022/11/23 08:14:24;;;;;;;25.85;16.25;;;;;;;10.77;100.00;99217.03;5051493;28;20037;-74
2022/11/23 08:16:51;;;;;;;21.63;15.73;;;;;;;10.77;100.00;99214.44;5069740;28;20027;-75
2022/11/23 08:19:16;;;;;;;21.90;15.43;;;;;;;10.46;100.00;99182.97;5055073;28;20028;-75
2022/11/23 08:21:43;;;;;;;21.92;15.23;;;;;;;9.93;100.00;99128.72;5072554;28;20404;-75
2022/11/23 08:24:08;;;;;;;26.52;17.27;;;;;;;10.41;100.00;99212.16;5072639;28;20028;-75
2022/11/23 08:26:34;;;;;;;26.35;17.63;;;;;;;10.51;100.00;99216.59;5054734;28;20095;-75
2022/11/23 08:28:59;;;;;;;31.52;18.80;;;;;;;10.62;100.00;99222.81;5072384;28;20031;-75
2022/11/23 08:31:25;;;;;;;29.80;20.42;;;;;;;10.64;100.00;99213.41;5054005;28;20029;-74
2022/11/23 08:33:50;;;;;;;26.58;16.80;;;;;;;10.67;100.00;99220.31;5072438;28;20098;-74
2022/11/23 08:36:16;;;;;;;25.30;17.35;;;;;;;10.58;100.00;99208.13;5072206;28;20039;-75
2022/11/23 08:38:41;;;;;;;25.95;17.27;;;;;;;10.49;100.00;99203.69;5054533;28;20027;-74
2022/11/23 08:41:07;;;;;;;26.65;17.63;;;;;;;10.62;100.00;99222.81;5054322;28;20048;-75
2022/11/23 08:43:33;;;;;;;29.13;17.55;;;;;;;10.66;100.00;99218.56;5072888;28;20043;-74
2022/11/23 08:46:00;;;;;;;24.40;16.90;;;;;;;10.63;100.00;99221.97;5071694;28;20044;-75
2022/11/23 08:48:26;;;;;;;29.38;18.75;;;;;;;10.48;100.00;99191.63;5072406;28;20044;-75
2022/11/23 08:50:52;;;;;;;28.45;18.40;;;;;;;10.78;100.00;99218.78;5071965;28;20081;-73
2022/11/23 08:53:18;;;;;;;26.98;17.05;;;;;;;10.82;100.00;99225.72;5072581;28;20021;-74
2022/11/23 08:55:43;;;;;;;29.25;17.38;;;;;;;10.51;100.00;99190.81;5072164;28;20035;-75
2022/11/23 08:58:09;;;;;;;25.10;17.77;;;;;;;10.64;100.00;99197.03;5072240;28;20025;-75
2022/11/23 09:00:35;;;;;;;25.73;18.00;;;;;;;10.88;100.00;99221.50;5071613;28;20028;-75
2022/11/23 09:03:01;;;;;;;25.30;18.95;;;;;;;11.00;100.00;99216.50;5070838;28;20039;-75
2022/11/23 09:05:28;;;;;;;27.00;18.63;;;;;;;11.08;100.00;99204.59;5071502;28;20036;-75
2022/11/23 09:08:00;;;;;;;29.17;19.15;;;;;;;11.10;100.00;99205.50;5049091;28;20037;-75
2022/11/23 09:10:25;;;;;;;23.77;16.80;;;;;;;10.93;100.00;99200.06;5049184;28;20059;-75
2022/11/23 09:12:51;;;;;;;24.20;17.02;;;;;;;10.95;100.00;99197.50;5049242;28;20582;-72
2022/11/23 09:15:17;;;;;;;22.90;17.63;;;;;;;11.05;100.00;99208.84;5049167;28;20558;-71
2022/11/23 09:17:43;;;;;;;24.42;17.65;;;;;;;11.06;100.00;99203.69;5037600;28;20064;-72
2022/11/23 09:20:09;;;;;;;28.30;18.20;;;;;;;10.93;100.00;99158.75;5045690;28;20170;-72
2022/11/23 09:22:35;;;;;;;27.45;17.13;;;;;;;11.21;100.00;99192.72;5049003;28;20032;-73
2022/11/23 09:25:01;;;;;;;27.08;17.60;;;;;;;11.34;100.00;99196.34;5049153;28;20524;-73
2022/11/23 09:27:26;;;;;;;28.15;18.52;;;;;;;11.04;100.00;99145.13;5048445;28;20045;-73
2022/11/23 09:29:52;;;;;;;27.45;18.27;;;;;;;11.42;100.00;99202.47;5048551;28;20048;-74
2022/11/23 09:32:17;;;;;;;24.73;18.00;;;;;;;11.47;100.00;99203.38;5048823;28;20055;-74
2022/11/23 09:34:44;;;;;;;24.30;17.02;;;;;;;11.44;100.00;99194.72;5023887;28;20078;-73
2022/11/23 09:37:10;;;;;;;23.75;17.70;;;;;;;11.50;100.00;99192.22;5030221;28;20480;-74
2022/11/23 09:39:37;;;;;;;23.83;17.50;;;;;;;11.56;100.00;99181.94;5048680;28;20584;-74
2022/11/23 09:42:24;;;;;;;23.73;16.98;;;;;;;11.55;100.00;99175.06;5048592;28;20033;-73
2022/11/23 09:45:01;;;;;;;27.88;18.13;;;;;;;11.50;100.00;99153.44;5054949;28;20033;-73
2022/11/23 09:47:52;;;;;;;25.02;16.75;;;;;;;11.52;100.00;99166.41;5053486;28;20059;-73
2022/11/23 09:50:26;;;;;;;23.52;16.90;;;;;;;11.58;100.00;99151.84;5071032;28;20059;-73
2022/11/23 09:52:52;;;;;;;29.80;18.60;;;;;;;11.63;100.00;99157.91;5052994;28;20040;-71
2022/11/23 09:55:27;;;;;;;28.13;18.27;;;;;;;11.71;100.00;99158.00;5070861;28;20402;-71
2022/11/23 09:57:59;;;;;;;30.85;18.55;;;;;;;11.75;100.00;99161.47;5065804;28;20115;-71
2022/11/23 10:00:26;;;;;;;29.90;19.05;;;;;;;11.81;100.00;99157.28;5070988;28;20085;-72
2022/11/23 10:02:52;;;;;;;30.08;19.90;;;;;;;11.92;100.00;99161.69;5070347;28;20032;-72
2022/11/23 10:05:21;;;;;;;28.80;19.30;;;;;;;12.02;100.00;99160.09;5070531;28;20028;-72
2022/11/23 10:08:07;;;;;;;28.50;18.40;;;;;;;11.74;100.00;99090.81;5070941;28;20051;-72
2022/11/23 10:11:10;;;;;;;29.20;18.67;;;;;;;12.05;100.00;99149.75;5070598;28;20570;-72
2022/11/23 10:13:55;;;;;;;27.48;18.35;;;;;;;12.08;100.00;99150.66;5070216;28;20091;-73
2022/11/23 10:16:23;;;;;;;27.52;17.27;;;;;;;12.16;100.00;99158.47;5067968;28;20025;-74
2022/11/23 10:19:04;;;;;;;28.17;18.95;;;;;;;12.23;100.00;99157.69;5070487;28;20029;-74
2022/11/23 10:21:44;;;;;;;32.72;22.98;;;;;;;12.26;100.00;99149.97;5052640;28;20020;-74
2022/11/23 10:24:19;;;;;;;29.42;18.73;;;;;;;12.35;100.00;99158.66;5070082;28;20028;-74
2022/11/23 10:26:48;;;;;;;26.15;17.50;;;;;;;12.38;100.00;99149.19;5070245;28;20072;-73
2022/11/23 10:29:35;;;;;;;25.50;17.63;;;;;;;12.25;100.00;99137.00;5070864;28;20035;-74
2022/11/23 10:32:03;;;;;;;20.92;15.07;;;;;;;11.98;100.00;99118.66;5070398;28;20028;-73
2022/11/23 10:34:47;;;;;;;25.73;16.88;;;;;;;12.27;100.00;99158.59;5051845;28;20032;-74
2022/11/23 10:37:15;;;;;;;26.05;16.83;;;;;;;12.34;100.00;99168.16;5070380;28;20029;-73
2022/11/23 10:39:40;;;;;;;26.67;18.17;;;;;;;12.21;100.00;99150.78;5070223;28;20029;-75
2022/11/23 10:42:21;;;;;;;20.83;15.55;;;;;;;12.30;100.00;99166.41;5069586;28;20032;-75
2022/11/23 10:44:49;;;;;;;23.15;16.00;;;;;;;12.35;100.00;99169.00;5069683;28;20063;-74
2022/11/23 10:47:40;;;;;;;24.00;15.10;;;;;;;12.37;100.00;99169.91;5070033;28;20589;-75
2022/11/23 10:50:24;;;;;;;22.55;14.48;;;;;;;12.41;100.00;99158.69;5067941;28;20043;-76
2022/11/23 10:53:11;;;;;;;20.50;14.88;;;;;;;12.34;100.00;99137.09;5070004;28;20036;-73
2022/11/23 10:55:49;;;;;;;22.70;15.73;;;;;;;12.61;100.00;99164.03;5065777;28;20330;-74
2022/11/23 10:58:33;;;;;;;44.92;30.33;;;;;;;12.62;100.00;99156.31;5073195;28;20033;-73
2022/11/23 11:01:04;;;;;;;36.53;25.50;;;;;;;12.71;100.00;99160.69;5068044;28;20513;-73
2022/11/23 11:03:32;;;;;;;33.63;25.13;;;;;;;12.76;100.00;99159.00;5069728;28;20024;-73
2022/11/23 11:05:58;;;;;;;22.70;16.75;;;;;;;12.80;100.00;99152.09;5069490;28;20028;-73
2022/11/23 11:08:29;;;;;;;25.38;17.15;;;;;;;12.64;100.00;99112.28;5069653;28;20111;-72
2022/11/23 11:11:00;;;;;;;24.02;16.27;;;;;;;12.91;100.00;99158.22;5057254;28;20028;-73
2022/11/23 11:13:38;;;;;;;23.55;16.95;;;;;;;12.74;100.00;99124.44;5069455;28;20024;-73
2022/11/23 11:16:16;;;;;;;22.55;16.27;;;;;;;12.70;100.00;99143.41;5061539;28;20065;-72
2022/11/23 11:18:42;;;;;;;23.85;15.82;;;;;;;12.66;100.00;99156.31;5069761;28;20040;-73
2022/11/23 11:21:32;;;;;;;24.20;16.35;;;;;;;12.73;100.00;99158.94;5069208;28;20024;-78
2022/11/23 11:24:20;;;;;;;56.42;38.47;;;;;;;12.73;100.00;99140.81;5068535;28;20040;-78